Time;durP1;ratioP1;P1;durP2;ratioP2;P2;SDS_P1;SDS_P2;PMS_P1;PMS_P2;Temp;Humidity;BMP_temperature;BMP_pressure;BME280_temperature;BME280_humidity;BME280_pressure;Samples;Min_cycle;Max_cycle;Signal;HPM_P1;HPM_P2
2023/09/25 00:02:24;;;;;;;2.80;2.53;;;11.40;99.90;;;;;;5081646;28;20266;-57
2023/09/25 00:04:52;;;;;;;2.63;2.20;;;11.40;99.90;;;;;;5083058;28;20201;-47
2023/09/25 00:07:19;;;;;;;3.03;2.73;;;11.40;99.90;;;;;;5052180;28;20230;-56
2023/09/25 00:09:46;;;;;;;3.07;2.77;;;11.40;99.90;;;;;;5082003;28;20193;-49
2023/09/25 00:12:13;;;;;;;3.87;2.43;;;11.40;99.90;;;;;;5083747;28;20198;-60
2023/09/25 00:14:41;;;;;;;3.60;2.53;;;11.40;99.90;;;;;;5080643;28;20966;-46
2023/09/25 00:17:08;;;;;;;3.33;2.83;;;11.40;99.90;;;;;;5083788;28;20225;-50
2023/09/25 00:19:35;;;;;;;2.60;2.40;;;11.30;99.90;;;;;;5078198;28;20277;-50
2023/09/25 00:22:02;;;;;;;2.70;2.50;;;11.30;99.90;;;;;;5083849;28;20231;-51
2023/09/25 00:24:28;;;;;;;3.93;2.60;;;11.30;99.90;;;;;;5035697;28;20213;-53
2023/09/25 00:26:55;;;;;;;3.70;2.40;;;11.30;99.90;;;;;;5079958;28;20210;-55
2023/09/25 00:29:22;;;;;;;2.83;2.23;;;11.30;99.90;;;;;;5081808;28;20275;-48
2023/09/25 00:31:50;;;;;;;3.70;2.43;;;11.30;99.90;;;;;;5069907;28;20209;-50
2023/09/25 00:34:17;;;;;;;2.93;2.73;;;11.30;99.90;;;;;;5080892;28;20198;-50
2023/09/25 00:36:44;;;;;;;2.73;2.47;;;11.30;99.90;;;;;;5082091;28;20270;-50
2023/09/25 00:39:11;;;;;;;5.00;2.40;;;11.30;99.90;;;;;;5043502;28;20202;-51
2023/09/25 00:41:38;;;;;;;2.70;2.50;;;11.30;99.90;;;;;;5082557;28;20263;-52
2023/09/25 00:44:05;;;;;;;3.77;2.17;;;11.30;99.90;;;;;;5079421;28;20221;-53
2023/09/25 00:46:32;;;;;;;2.33;2.13;;;11.30;99.90;;;;;;5082130;28;20577;-49
2023/09/25 00:49:00;;;;;;;3.17;2.47;;;11.40;99.90;;;;;;5080356;28;20222;-50
2023/09/25 00:51:28;;;;;;;4.43;2.80;;;11.40;99.90;;;;;;5081635;28;20251;-51
2023/09/25 00:53:56;;;;;;;2.70;2.53;;;11.30;99.90;;;;;;5051534;28;20205;-51
2023/09/25 00:56:23;;;;;;;2.80;2.43;;;11.40;99.90;;;;;;5080095;28;20226;-51
2023/09/25 00:58:50;;;;;;;2.73;2.53;;;11.40;99.90;;;;;;5080703;28;20240;-53
2023/09/25 01:01:18;;;;;;;3.90;2.53;;;11.30;99.90;;;;;;5079016;28;20213;-49
2023/09/25 01:03:44;;;;;;;2.27;2.17;;;11.30;99.90;;;;;;5081425;28;20198;-51
2023/09/25 01:06:13;;;;;;;2.53;2.33;;;11.30;99.90;;;;;;5079086;28;20279;-50
2023/09/25 01:08:40;;;;;;;3.23;2.37;;;11.30;99.90;;;;;;5081322;28;20222;-50
2023/09/25 01:11:08;;;;;;;2.70;2.50;;;11.30;99.90;;;;;;5042965;28;20204;-51
2023/09/25 01:13:35;;;;;;;2.60;2.40;;;11.30;99.90;;;;;;5081179;28;20538;-53
2023/09/25 01:16:03;;;;;;;3.43;2.77;;;11.30;99.90;;;;;;5079509;28;20290;-54
2023/09/25 01:18:30;;;;;;;3.87;2.63;;;11.30;99.90;;;;;;5081300;28;20233;-49
2023/09/25 01:20:56;;;;;;;2.53;2.33;;;11.30;99.90;;;;;;5080228;28;20552;-53
2023/09/25 01:23:24;;;;;;;2.80;2.60;;;11.20;99.90;;;;;;5079790;28;20193;-49
2023/09/25 01:25:51;;;;;;;3.20;2.73;;;11.30;99.90;;;;;;5049253;28;20776;-53
2023/09/25 01:28:18;;;;;;;2.80;2.60;;;11.30;99.90;;;;;;5080015;28;20206;-51
2023/09/25 01:30:45;;;;;;;2.77;2.57;;;11.30;99.90;;;;;;5081043;28;20194;-48
2023/09/25 01:33:13;;;;;;;2.90;2.70;;;11.30;99.90;;;;;;5078817;28;20202;-50
2023/09/25 01:35:39;;;;;;;2.87;2.60;;;11.30;99.90;;;;;;5082319;28;20664;-48
2023/09/25 01:38:06;;;;;;;2.50;2.30;;;11.20;99.90;;;;;;5078385;28;20906;-49
2023/09/25 01:40:34;;;;;;;2.63;2.47;;;11.20;99.90;;;;;;5052142;28;20248;-52
2023/09/25 01:43:02;;;;;;;2.80;2.60;;;11.20;99.90;;;;;;5079573;28;20197;-52
2023/09/25 01:45:29;;;;;;;2.63;2.43;;;11.20;99.90;;;;;;5081984;28;21067;-50
2023/09/25 01:47:56;;;;;;;2.73;2.53;;;11.20;99.90;;;;;;5079770;28;20206;-52
2023/09/25 01:50:25;;;;;;;2.60;2.40;;;11.20;99.90;;;;;;5080447;28;20182;-51
2023/09/25 01:52:54;;;;;;;2.77;2.57;;;11.20;99.90;;;;;;5080895;28;20194;-52
2023/09/25 01:55:21;;;;;;;3.53;2.73;;;11.20;99.90;;;;;;5077279;28;20252;-50
2023/09/25 01:57:49;;;;;;;2.80;2.60;;;11.20;99.90;;;;;;5046749;28;20221;-50
2023/09/25 02:00:18;;;;;;;3.17;2.37;;;11.20;99.90;;;;;;5077909;28;20198;-48
2023/09/25 02:02:45;;;;;;;2.80;2.60;;;11.10;99.90;;;;;;5080533;28;20205;-55
2023/09/25 02:05:12;;;;;;;2.80;2.60;;;11.20;99.90;;;;;;5074447;28;20912;-49
2023/09/25 02:07:39;;;;;;;2.73;2.53;;;11.10;99.90;;;;;;5080338;28;20715;-54
2023/09/25 02:10:07;;;;;;;3.00;2.43;;;11.10;99.90;;;;;;5077519;28;20194;-49
2023/09/25 02:12:35;;;;;;;3.30;2.40;;;11.10;99.90;;;;;;5045777;28;20225;-54
2023/09/25 02:15:06;;;;;;;2.93;2.63;;;11.10;99.90;;;;;;5077411;28;20722;-51
2023/09/25 02:17:34;;;;;;;2.90;2.70;;;11.10;99.90;;;;;;5081743;28;20263;-51
2023/09/25 02:20:20;;;;;;;4.57;3.03;;;11.10;99.90;;;;;;5077442;28;20197;-51
2023/09/25 02:22:47;;;;;;;2.93;2.73;;;11.10;99.90;;;;;;5081600;28;20190;-53
2023/09/25 02:25:14;;;;;;;4.53;2.87;;;11.00;99.90;;;;;;5077449;28;20209;-53
2023/09/25 02:27:41;;;;;;;3.70;2.53;;;11.00;99.90;;;;;;5080025;28;20217;-51
2023/09/25 02:30:11;;;;;;;5.03;2.90;;;11.00;99.90;;;;;;5042780;28;20334;-48
2023/09/25 02:32:38;;;;;;;3.87;2.90;;;11.00;99.90;;;;;;5080576;28;20542;-49
2023/09/25 02:35:07;;;;;;;3.33;2.60;;;11.00;99.90;;;;;;5077974;28;20198;-52
2023/09/25 02:37:34;;;;;;;3.07;2.87;;;11.00;99.90;;;;;;5081735;28;20220;-52
2023/09/25 02:40:01;;;;;;;4.90;2.70;;;11.00;99.90;;;;;;5076515;28;20190;-51
2023/09/25 02:42:28;;;;;;;2.77;2.53;;;11.00;99.90;;;;;;5069056;28;20573;-50
2023/09/25 02:44:54;;;;;;;4.17;2.80;;;11.00;99.90;;;;;;5049676;28;20199;-48
2023/09/25 02:47:23;;;;;;;3.30;3.00;;;11.00;99.90;;;;;;5082264;28;20217;-49
2023/09/25 02:49:49;;;;;;;2.73;2.53;;;10.90;99.90;;;;;;5082591;28;20221;-52
2023/09/25 02:52:16;;;;;;;4.10;2.90;;;10.90;99.90;;;;;;5082223;28;20245;-48
2023/09/25 02:54:43;;;;;;;3.10;2.90;;;10.90;99.90;;;;;;5080232;28;20339;-50
2023/09/25 02:57:10;;;;;;;3.03;2.83;;;10.90;99.90;;;;;;5083996;28;20720;-50
2023/09/25 02:59:37;;;;;;;5.20;3.10;;;10.90;99.90;;;;;;5047647;28;20202;-52
2023/09/25 03:02:04;;;;;;;2.90;2.70;;;10.80;99.90;;;;;;5085513;28;20205;-49
2023/09/25 03:04:32;;;;;;;3.83;3.23;;;10.80;99.90;;;;;;5082825;28;20218;-53
2023/09/25 03:06:59;;;;;;;4.13;2.90;;;10.80;99.90;;;;;;5082101;28;20473;-48
2023/09/25 03:09:26;;;;;;;3.33;3.03;;;10.80;99.90;;;;;;5083225;28;20206;-52
2023/09/25 03:11:53;;;;;;;2.97;2.77;;;10.80;99.90;;;;;;5083180;28;20229;-48
2023/09/25 03:14:20;;;;;;;3.37;3.10;;;10.80;99.90;;;;;;5081460;28;20186;-50
2023/09/25 03:16:47;;;;;;;3.67;2.53;;;10.80;99.90;;;;;;5057156;28;20255;-50
2023/09/25 03:19:13;;;;;;;2.90;2.70;;;10.80;99.90;;;;;;5084943;28;20194;-48
2023/09/25 03:21:42;;;;;;;2.73;2.53;;;10.80;99.90;;;;;;5079748;28;20919;-51
2023/09/25 03:24:09;;;;;;;4.70;2.80;;;10.80;99.90;;;;;;5084341;28;20229;-48
2023/09/25 03:26:36;;;;;;;3.90;2.70;;;10.70;99.90;;;;;;5079794;28;20218;-53
2023/09/25 03:29:06;;;;;;;2.80;2.60;;;10.70;99.90;;;;;;5083375;28;20804;-48
2023/09/25 03:31:33;;;;;;;3.00;2.80;;;10.70;99.90;;;;;;5046086;28;20616;-53
2023/09/25 03:34:00;;;;;;;3.27;2.97;;;10.70;99.90;;;;;;5082625;28;20209;-50
2023/09/25 03:36:27;;;;;;;3.13;2.83;;;10.70;99.90;;;;;;5081352;28;20301;-51
2023/09/25 03:38:56;;;;;;;2.83;2.50;;;10.70;99.90;;;;;;5082670;28;20277;-51
2023/09/25 03:41:23;;;;;;;3.20;2.40;;;10.70;99.90;;;;;;5083923;28;20713;-55
2023/09/25 03:43:51;;;;;;;2.60;2.40;;;10.70;99.90;;;;;;5079800;28;20273;-48
2023/09/25 03:46:18;;;;;;;3.30;3.10;;;10.60;99.90;;;;;;5052581;28;20308;-50
2023/09/25 03:48:48;;;;;;;3.67;2.90;;;10.70;99.90;;;;;;5078642;28;20801;-48
2023/09/25 03:51:16;;;;;;;3.03;2.73;;;10.60;99.90;;;;;;5083321;28;20190;-49
2023/09/25 03:53:42;;;;;;;3.97;2.70;;;10.60;99.90;;;;;;5080579;28;20208;-48
2023/09/25 03:56:10;;;;;;;3.20;2.90;;;10.60;99.90;;;;;;5082571;28;20218;-51
2023/09/25 03:58:37;;;;;;;3.00;2.80;;;10.60;99.90;;;;;;5080060;28;20193;-53
2023/09/25 04:01:04;;;;;;;3.03;2.83;;;10.60;99.90;;;;;;5084149;28;20308;-49
2023/09/25 04:03:31;;;;;;;2.80;2.60;;;10.60;99.90;;;;;;5052464;28;20543;-53
2023/09/25 04:05:58;;;;;;;2.90;2.70;;;10.60;99.90;;;;;;5083122;28;20275;-48
2023/09/25 04:08:25;;;;;;;2.87;2.67;;;10.60;99.90;;;;;;5082654;28;20656;-53
2023/09/25 04:10:52;;;;;;;2.50;2.30;;;10.60;99.90;;;;;;5081494;28;20278;-52
2023/09/25 04:13:22;;;;;;;3.20;2.90;;;10.60;99.90;;;;;;5084223;28;20200;-49
2023/09/25 04:15:50;;;;;;;3.73;2.70;;;10.60;99.90;;;;;;5070235;28;20206;-49
2023/09/25 04:18:18;;;;;;;2.90;2.70;;;10.50;99.90;;;;;;5047572;28;20206;-50
2023/09/25 04:20:45;;;;;;;3.90;2.60;;;10.50;99.90;;;;;;5082223;28;20286;-51
2023/09/25 04:23:13;;;;;;;2.60;2.37;;;10.50;99.90;;;;;;5076539;28;20198;-54
2023/09/25 04:25:40;;;;;;;3.03;2.83;;;10.50;99.90;;;;;;5071615;28;20205;-48
2023/09/25 04:28:07;;;;;;;3.30;3.00;;;10.40;99.90;;;;;;5080717;28;20272;-53
2023/09/25 04:30:35;;;;;;;3.73;2.73;;;10.40;99.90;;;;;;5079711;28;20217;-48
2023/09/25 04:33:02;;;;;;;2.73;2.53;;;10.30;99.90;;;;;;5060713;28;20209;-52
2023/09/25 04:35:29;;;;;;;3.30;3.10;;;10.30;99.90;;;;;;5071821;28;20229;-49
2023/09/25 04:37:56;;;;;;;2.93;2.70;;;10.30;99.90;;;;;;5074904;28;20193;-55
2023/09/25 04:40:30;;;;;;;3.40;3.00;;;10.30;99.90;;;;;;5081584;28;20216;-51
2023/09/25 04:42:58;;;;;;;3.70;3.20;;;10.20;99.90;;;;;;5081765;28;20583;-53
2023/09/25 04:45:25;;;;;;;3.30;3.07;;;10.30;99.90;;;;;;5074842;28;20205;-50
2023/09/25 04:47:53;;;;;;;2.83;2.63;;;10.30;99.90;;;;;;5075690;28;20217;-53
2023/09/25 04:50:21;;;;;;;5.10;3.47;;;10.30;99.90;;;;;;5063944;28;20297;-50
2023/09/25 04:52:48;;;;;;;3.27;3.03;;;10.30;99.90;;;;;;5083182;28;20239;-52
2023/09/25 04:55:16;;;;;;;3.00;2.80;;;10.30;99.90;;;;;;5072604;28;20197;-55
2023/09/25 04:57:46;;;;;;;3.83;2.97;;;10.30;99.90;;;;;;5082233;28;20314;-54
2023/09/25 05:00:17;;;;;;;3.30;2.90;;;10.30;99.90;;;;;;5079155;28;20205;-53
2023/09/25 05:02:45;;;;;;;3.53;3.23;;;10.30;99.90;;;;;;5075864;28;20210;-53
2023/09/25 05:05:14;;;;;;;3.37;3.07;;;10.30;99.90;;;;;;5042574;28;20209;-54
2023/09/25 05:07:42;;;;;;;3.20;3.00;;;10.40;99.90;;;;;;5082465;28;20214;-51
2023/09/25 05:10:10;;;;;;;4.00;3.07;;;10.40;99.90;;;;;;5070826;28;20213;-52
2023/09/25 05:12:38;;;;;;;4.63;3.80;;;10.40;99.90;;;;;;5082718;28;20193;-51
2023/09/25 05:15:07;;;;;;;3.83;3.53;;;10.40;99.90;;;;;;5078650;28;20205;-53
2023/09/25 05:17:34;;;;;;;4.27;3.87;;;10.40;99.90;;;;;;5075441;28;20222;-48
2023/09/25 05:20:01;;;;;;;4.27;3.40;;;10.40;99.90;;;;;;5042759;28;20202;-48
2023/09/25 05:22:29;;;;;;;4.43;4.13;;;10.40;99.90;;;;;;5084593;28;20194;-51
2023/09/25 05:24:56;;;;;;;3.43;3.17;;;10.40;99.90;;;;;;5064485;28;20207;-49
2023/09/25 05:27:23;;;;;;;4.20;3.80;;;10.40;99.90;;;;;;5083413;28;20214;-51
2023/09/25 05:29:51;;;;;;;3.70;3.40;;;10.40;99.90;;;;;;5069162;28;20279;-51
2023/09/25 05:32:18;;;;;;;3.93;3.57;;;10.40;99.90;;;;;;5084123;28;20209;-48
2023/09/25 05:34:44;;;;;;;3.83;3.53;;;10.40;99.90;;;;;;5072820;28;20205;-53
2023/09/25 05:37:12;;;;;;;4.80;3.90;;;10.40;99.90;;;;;;5052384;28;20229;-49
2023/09/25 05:39:40;;;;;;;4.67;3.80;;;10.50;99.90;;;;;;5073575;28;20198;-50
2023/09/25 05:42:07;;;;;;;3.67;3.37;;;10.50;99.90;;;;;;5073605;28;20198;-54
2023/09/25 05:44:33;;;;;;;4.17;3.73;;;10.50;99.90;;;;;;5071455;28;20533;-54
2023/09/25 05:47:00;;;;;;;4.43;3.83;;;10.60;99.90;;;;;;5074023;28;20210;-48
2023/09/25 05:49:27;;;;;;;4.60;3.90;;;10.60;99.90;;;;;;5075166;28;20217;-54
2023/09/25 05:51:54;;;;;;;4.83;3.50;;;10.60;99.90;;;;;;5048420;28;20213;-51
2023/09/25 05:54:21;;;;;;;3.90;3.60;;;10.70;99.90;;;;;;5060468;28;20205;-54
2023/09/25 05:56:49;;;;;;;3.97;3.67;;;10.70;99.90;;;;;;5071562;28;20263;-48
2023/09/25 05:59:16;;;;;;;5.37;3.93;;;10.70;99.90;;;;;;5073867;28;20322;-55
2023/09/25 06:01:43;;;;;;;3.77;3.40;;;10.80;99.90;;;;;;5069114;28;20210;-50
2023/09/25 06:04:10;;;;;;;5.67;3.97;;;10.80;99.90;;;;;;5079007;28;20202;-54
2023/09/25 06:06:37;;;;;;;4.73;3.60;;;10.90;99.90;;;;;;5047748;28;21102;-51
2023/09/25 06:09:08;;;;;;;3.87;3.37;;;10.90;99.90;;;;;;5080116;28;20721;-51
2023/09/25 06:11:37;;;;;;;4.40;3.60;;;11.00;99.90;;;;;;5065499;28;20939;-51
2023/09/25 06:14:04;;;;;;;4.03;3.50;;;11.00;99.90;;;;;;5081995;28;20219;-54
2023/09/25 06:16:31;;;;;;;3.63;3.33;;;11.10;99.90;;;;;;5052177;28;20221;-50
2023/09/25 06:18:58;;;;;;;3.40;3.03;;;11.10;99.90;;;;;;5083198;28;20737;-49
2023/09/25 06:21:25;;;;;;;3.37;3.17;;;11.10;99.90;;;;;;5080356;28;20198;-49
2023/09/25 06:23:52;;;;;;;3.90;3.60;;;11.20;99.90;;;;;;5057237;28;20278;-48
2023/09/25 06:26:19;;;;;;;3.73;3.43;;;11.30;99.90;;;;;;5069690;28;20224;-52
2023/09/25 06:28:46;;;;;;;3.80;3.50;;;11.30;99.90;;;;;;5073826;28;20194;-54
2023/09/25 06:31:16;;;;;;;3.83;3.53;;;11.40;99.90;;;;;;5070811;28;20343;-49
2023/09/25 06:33:43;;;;;;;4.37;3.47;;;11.40;99.90;;;;;;5080338;28;20197;-54
2023/09/25 06:36:10;;;;;;;3.83;3.53;;;11.40;99.90;;;;;;5062028;28;20222;-54
2023/09/25 06:38:37;;;;;;;4.33;3.50;;;11.50;99.90;;;;;;5046268;28;21360;-47
2023/09/25 06:41:04;;;;;;;3.83;3.40;;;11.50;99.90;;;;;;5073967;28;20294;-51
2023/09/25 06:43:40;;;;;;;3.70;3.40;;;11.60;99.90;;;;;;5067719;28;20902;-47
2023/09/25 06:46:10;;;;;;;4.10;3.63;;;11.60;99.90;;;;;;5070439;28;20222;-50
2023/09/25 06:48:50;;;;;;;3.33;3.13;;;11.70;99.90;;;;;;5071429;28;20989;-50
2023/09/25 06:51:18;;;;;;;3.50;3.30;;;11.70;99.90;;;;;;5079382;28;20212;-51
2023/09/25 06:53:45;;;;;;;7.30;3.60;;;11.90;99.90;;;;;;5084267;28;20196;-48
2023/09/25 06:56:12;;;;;;;3.47;3.17;;;11.90;99.90;;;;;;5048344;28;20234;-52
2023/09/25 06:58:39;;;;;;;3.13;2.83;;;12.00;99.90;;;;;;5074792;28;21002;-51
2023/09/25 07:01:06;;;;;;;3.00;2.80;;;12.10;99.90;;;;;;5074909;28;20577;-48
2023/09/25 07:03:33;;;;;;;3.93;2.90;;;12.20;99.90;;;;;;5068342;28;20212;-49
2023/09/25 07:06:01;;;;;;;3.57;3.37;;;12.20;99.90;;;;;;5086709;28;20683;-48
2023/09/25 07:08:30;;;;;;;3.40;3.10;;;12.30;99.90;;;;;;5072876;28;20193;-49
2023/09/25 07:11:00;;;;;;;3.87;3.10;;;12.40;99.90;;;;;;5047373;28;20213;-51
2023/09/25 07:13:30;;;;;;;4.27;2.80;;;12.50;99.90;;;;;;5071788;28;20204;-46
2023/09/25 07:16:05;;;;;;;3.07;2.70;;;12.60;99.90;;;;;;5082764;28;20411;-49
2023/09/25 07:18:33;;;;;;;2.97;2.50;;;12.70;99.90;;;;;;5064474;28;20869;-50
2023/09/25 07:21:01;;;;;;;3.27;2.50;;;12.80;99.90;;;;;;5078050;28;20210;-51
2023/09/25 07:23:43;;;;;;;2.87;2.67;;;12.90;99.90;;;;;;5075359;28;20212;-50
2023/09/25 07:26:13;;;;;;;2.53;2.40;;;13.00;99.90;;;;;;5050261;28;20611;-54
2023/09/25 07:28:46;;;;;;;2.93;2.70;;;13.10;99.90;;;;;;5086026;28;20202;-48
2023/09/25 07:31:26;;;;;;;2.50;2.30;;;13.20;99.90;;;;;;5072427;28;20232;-53
2023/09/25 07:33:59;;;;;;;3.70;2.90;;;13.30;99.90;;;;;;5064873;28;20206;-52
2023/09/25 07:36:34;;;;;;;2.70;2.50;;;13.40;99.90;;;;;;5072099;28;20213;-48
2023/09/25 07:39:13;;;;;;;2.60;2.40;;;13.50;99.90;;;;;;5082166;28;20813;-51
2023/09/25 07:41:56;;;;;;;2.43;2.30;;;13.60;99.90;;;;;;5050327;28;20324;-50
2023/09/25 07:44:42;;;;;;;3.43;2.23;;;13.70;99.90;;;;;;5081609;28;20190;-52
2023/09/25 07:47:12;;;;;;;2.53;2.10;;;13.80;99.90;;;;;;5069136;28;20250;-52
2023/09/25 07:49:44;;;;;;;2.90;2.70;;;13.90;99.90;;;;;;5072884;28;20252;-49
2023/09/25 07:52:16;;;;;;;4.23;2.33;;;14.00;99.90;;;;;;5071928;28;20201;-52
2023/09/25 07:54:45;;;;;;;2.60;2.40;;;14.10;99.90;;;;;;5084531;28;20217;-52
2023/09/25 07:57:14;;;;;;;3.13;2.40;;;14.20;99.90;;;;;;5040214;28;20236;-54
2023/09/25 07:59:41;;;;;;;3.20;2.13;;;14.20;99.90;;;;;;5082796;28;20198;-52
2023/09/25 08:02:08;;;;;;;2.20;2.00;;;14.40;99.90;;;;;;5067525;28;20224;-54
2023/09/25 08:04:35;;;;;;;1.90;1.80;;;14.50;99.90;;;;;;5079442;28;20205;-48
2023/09/25 08:07:03;;;;;;;3.77;2.00;;;14.70;99.90;;;;;;5063308;28;20806;-51
2023/09/25 08:09:31;;;;;;;3.33;2.30;;;14.80;99.90;;;;;;5082821;28;20212;-46
2023/09/25 08:11:58;;;;;;;3.97;2.07;;;14.90;99.90;;;;;;5084629;28;20214;-53
2023/09/25 08:14:26;;;;;;;2.10;1.80;;;15.00;99.90;;;;;;5056717;28;20217;-47
2023/09/25 08:16:53;;;;;;;2.63;2.20;;;15.00;99.90;;;;;;5075494;28;20214;-46
2023/09/25 08:19:22;;;;;;;1.90;1.80;;;15.10;99.90;;;;;;5071125;28;20197;-46
2023/09/25 08:21:51;;;;;;;4.03;1.53;;;15.20;99.90;;;;;;5075819;28;20197;-48
2023/09/25 08:24:18;;;;;;;3.63;1.70;;;15.30;99.90;;;;;;5079359;28;20209;-48
2023/09/25 08:26:47;;;;;;;2.23;2.13;;;15.40;99.90;;;;;;5080125;28;20259;-47
2023/09/25 08:29:14;;;;;;;7.20;1.83;;;15.50;99.90;;;;;;5051673;28;20536;-48
2023/09/25 08:31:43;;;;;;;2.10;1.47;;;15.60;99.90;;;;;;5069769;28;20225;-49
2023/09/25 08:34:10;;;;;;;2.77;1.83;;;15.70;99.90;;;;;;5077164;28;20216;-53
2023/09/25 08:36:37;;;;;;;1.83;1.60;;;15.70;99.90;;;;;;5072958;28;20216;-52
2023/09/25 08:39:04;;;;;;;3.60;2.07;;;15.80;99.90;;;;;;5076543;28;20225;-50
2023/09/25 08:41:32;;;;;;;3.43;2.30;;;15.90;99.90;;;;;;5081661;28;20663;-51
2023/09/25 08:44:01;;;;;;;2.00;1.80;;;15.90;99.90;;;;;;5049921;28;20340;-48
2023/09/25 08:46:29;;;;;;;2.77;1.93;;;15.90;99.90;;;;;;5084912;28;20206;-51
2023/09/25 08:48:56;;;;;;;2.40;2.20;;;16.00;99.90;;;;;;5074340;28;20868;-48
2023/09/25 08:51:24;;;;;;;3.23;1.73;;;16.00;99.90;;;;;;5083576;28;20217;-53
2023/09/25 08:53:52;;;;;;;2.27;1.70;;;16.20;99.90;;;;;;5068007;28;20206;-47
2023/09/25 08:56:21;;;;;;;2.00;1.70;;;16.20;99.90;;;;;;5084218;28;20224;-48
2023/09/25 08:58:50;;;;;;;4.60;2.00;;;16.30;99.90;;;;;;5079444;28;20197;-51
2023/09/25 09:01:20;;;;;;;1.77;1.47;;;16.40;99.90;;;;;;5048689;28;20202;-48
2023/09/25 09:03:47;;;;;;;3.40;1.80;;;16.50;99.90;;;;;;5070616;28;20297;-47
2023/09/25 09:06:14;;;;;;;1.73;1.63;;;16.70;99.90;;;;;;5084626;28;20270;-49
2023/09/25 09:08:43;;;;;;;1.87;1.50;;;16.80;99.90;;;;;;5065268;28;20214;-51
2023/09/25 09:11:11;;;;;;;1.80;1.70;;;16.90;99.90;;;;;;5086304;28;20297;-54
2023/09/25 09:13:47;;;;;;;1.80;1.67;;;17.00;99.90;;;;;;5078728;28;20267;-55
2023/09/25 09:16:16;;;;;;;2.90;1.50;;;17.10;99.90;;;;;;5051714;28;20233;-46
2023/09/25 09:18:45;;;;;;;1.87;1.40;;;17.10;99.90;;;;;;5069193;28;20306;-48
2023/09/25 09:21:23;;;;;;;1.80;1.30;;;17.30;99.90;;;;;;5083377;28;20190;-50
2023/09/25 09:23:50;;;;;;;1.50;1.40;;;17.30;99.90;;;;;;5069789;28;20207;-49
2023/09/25 09:26:17;;;;;;;2.50;1.27;;;17.50;99.90;;;;;;5076217;28;20225;-48
2023/09/25 09:28:46;;;;;;;3.40;1.50;;;17.60;99.90;;;;;;5080339;28;20271;-55
2023/09/25 09:31:17;;;;;;;1.20;1.10;;;17.60;99.90;;;;;;5082124;28;20225;-50
2023/09/25 09:33:45;;;;;;;1.83;1.20;;;17.70;99.90;;;;;;5053697;28;20233;-49
2023/09/25 09:36:14;;;;;;;1.40;1.30;;;17.80;99.90;;;;;;5071246;28;20299;-52
2023/09/25 09:38:42;;;;;;;1.50;1.17;;;17.90;99.90;;;;;;5069658;28;20652;-50
2023/09/25 09:41:09;;;;;;;1.30;1.20;;;17.90;99.90;;;;;;5076211;28;20198;-56
2023/09/25 09:43:37;;;;;;;1.70;1.37;;;18.00;99.90;;;;;;5079361;28;20189;-47
2023/09/25 09:46:04;;;;;;;1.40;1.30;;;18.10;99.90;;;;;;5083542;28;20224;-47
2023/09/25 09:48:32;;;;;;;2.67;1.47;;;18.10;99.90;;;;;;5052726;28;20284;-47
2023/09/25 09:51:03;;;;;;;2.83;1.30;;;18.10;99.90;;;;;;5071656;28;20229;-53
2023/09/25 09:53:35;;;;;;;1.47;1.10;;;18.10;99.90;;;;;;5081081;28;20202;-45
2023/09/25 09:56:02;;;;;;;1.17;0.90;;;18.10;99.90;;;;;;5066817;28;20667;-48
2023/09/25 09:58:30;;;;;;;2.50;1.13;;;18.20;99.90;;;;;;5083329;28;20190;-50
2023/09/25 10:00:58;;;;;;;2.20;1.50;;;18.20;99.90;;;;;;5081556;28;20236;-49
2023/09/25 10:03:26;;;;;;;1.20;1.10;;;18.20;99.90;;;;;;5052369;28;20221;-49
2023/09/25 10:05:55;;;;;;;1.90;1.30;;;18.20;99.90;;;;;;5072092;28;20206;-50
2023/09/25 10:08:23;;;;;;;1.83;1.37;;;18.30;99.90;;;;;;5080709;28;20197;-52
2023/09/25 10:10:52;;;;;;;2.20;1.07;;;18.30;99.90;;;;;;5064510;28;21684;-53
2023/09/25 10:13:25;;;;;;;1.10;1.00;;;18.40;99.90;;;;;;5084989;28;20197;-54
2023/09/25 10:15:55;;;;;;;2.20;1.30;;;18.50;99.90;;;;;;5079879;28;20250;-51
2023/09/25 10:18:22;;;;;;;1.80;1.10;;;18.60;99.90;;;;;;5050661;28;20230;-48
2023/09/25 10:20:49;;;;;;;3.33;1.40;;;18.60;99.90;;;;;;5080393;28;20182;-51
2023/09/25 10:23:22;;;;;;;1.33;1.10;;;18.70;99.90;;;;;;5073143;28;20189;-47
2023/09/25 10:25:52;;;;;;;1.73;1.20;;;18.80;99.90;;;;;;5067666;28;20213;-49
2023/09/25 10:28:24;;;;;;;2.43;1.20;;;18.80;99.90;;;;;;5075357;28;20198;-52
2023/09/25 10:30:52;;;;;;;1.53;1.20;;;18.90;99.90;;;;;;5078869;28;20305;-51
2023/09/25 10:33:21;;;;;;;1.20;1.00;;;19.10;99.90;;;;;;5082798;28;20213;-50
2023/09/25 10:35:50;;;;;;;2.23;1.00;;;19.20;99.90;;;;;;5050161;28;20202;-52
2023/09/25 10:38:19;;;;;;;1.80;0.93;;;19.20;99.90;;;;;;5070919;28;20198;-50
2023/09/25 10:40:49;;;;;;;2.70;1.20;;;19.30;99.90;;;;;;5069101;28;20194;-48
2023/09/25 10:43:18;;;;;;;1.77;1.13;;;19.40;99.90;;;;;;5076459;28;20206;-52
2023/09/25 10:45:46;;;;;;;1.10;0.90;;;19.40;99.90;;;;;;5080352;28;20913;-50
2023/09/25 10:48:13;;;;;;;3.73;1.33;;;19.40;99.90;;;;;;5080098;28;20212;-47
2023/09/25 10:50:41;;;;;;;1.77;1.30;;;19.50;99.90;;;;;;5044365;28;20205;-48
2023/09/25 10:53:08;;;;;;;3.07;1.40;;;19.50;99.90;;;;;;5077168;28;20202;-48
2023/09/25 10:55:36;;;;;;;1.37;1.03;;;19.40;99.90;;;;;;5067476;28;20271;-49
2023/09/25 10:58:05;;;;;;;1.27;1.03;;;19.40;99.90;;;;;;5072200;28;20201;-48
2023/09/25 11:00:34;;;;;;;0.90;0.80;;;19.40;99.90;;;;;;5072581;28;20283;-50
2023/09/25 11:03:02;;;;;;;1.97;1.10;;;19.40;99.90;;;;;;5081448;28;20217;-48
2023/09/25 11:05:30;;;;;;;1.73;0.93;;;19.60;99.90;;;;;;5051526;28;20214;-50
2023/09/25 11:07:58;;;;;;;1.40;1.30;;;19.70;99.90;;;;;;5075610;28;20295;-51
2023/09/25 11:10:29;;;;;;;1.57;1.23;;;19.80;99.90;;;;;;5085663;28;20189;-49
2023/09/25 11:12:57;;;;;;;1.97;1.20;;;19.80;99.90;;;;;;5068445;28;20229;-50
2023/09/25 11:15:25;;;;;;;1.57;1.10;;;19.90;99.90;;;;;;5081695;28;20675;-47
2023/09/25 11:17:53;;;;;;;2.67;1.10;;;19.90;99.90;;;;;;5083037;28;20953;-49
2023/09/25 11:20:29;;;;;;;1.30;1.20;;;20.00;99.90;;;;;;5086758;28;20198;-46
2023/09/25 11:23:03;;;;;;;4.03;1.10;;;20.10;99.90;;;;;;5061388;28;20209;-50
2023/09/25 11:25:30;;;;;;;0.97;0.87;;;20.10;99.90;;;;;;5081882;28;20202;-52
2023/09/25 11:27:58;;;;;;;2.03;0.83;;;20.30;99.90;;;;;;5076418;28;20283;-55
2023/09/25 11:30:29;;;;;;;2.37;1.10;;;20.40;99.90;;;;;;5067167;28;21983;-51
2023/09/25 11:32:59;;;;;;;0.87;0.87;;;20.50;99.90;;;;;;5078859;28;20684;-57
2023/09/25 11:35:27;;;;;;;1.40;1.30;;;20.50;99.90;;;;;;5082249;28;20606;-51
2023/09/25 11:37:59;;;;;;;1.93;1.10;;;20.50;99.90;;;;;;5047573;28;20229;-51
2023/09/25 11:40:26;;;;;;;1.60;1.40;;;20.50;99.90;;;;;;5072112;28;20208;-48
2023/09/25 11:42:53;;;;;;;1.80;1.13;;;20.50;99.90;;;;;;5078115;28;20197;-50
2023/09/25 11:45:20;;;;;;;1.47;1.00;;;20.50;99.90;;;;;;5072899;28;20210;-58
2023/09/25 11:47:47;;;;;;;2.50;1.05;;;20.50;99.90;;;;;;5077623;28;20630;-47
2023/09/25 11:50:16;;;;;;;1.67;1.10;;;20.50;99.90;;;;;;5082760;28;20193;-50
2023/09/25 11:52:43;;;;;;;1.97;1.10;;;20.50;99.90;;;;;;5051149;28;20311;-47
2023/09/25 11:55:11;;;;;;;1.73;1.20;;;20.50;99.90;;;;;;5070891;28;20214;-54
2023/09/25 11:57:41;;;;;;;1.33;0.90;;;20.50;99.90;;;;;;5081697;28;20213;-47
2023/09/25 12:00:09;;;;;;;1.03;0.90;;;20.60;99.70;;;;;;5074597;28;20210;-50
2023/09/25 12:02:40;;;;;;;1.00;0.90;;;20.50;99.20;;;;;;5076783;28;20255;-46
2023/09/25 12:05:08;;;;;;;1.20;1.08;;;20.50;98.90;;;;;;5085359;28;20225;-50
2023/09/25 12:07:36;;;;;;;1.20;1.00;;;20.60;98.60;;;;;;5051163;28;20359;-46
2023/09/25 12:10:05;;;;;;;2.80;0.80;;;20.60;98.40;;;;;;5075211;28;20762;-50
2023/09/25 12:12:32;;;;;;;1.45;1.10;;;20.60;98.20;;;;;;5081156;28;20209;-49
2023/09/25 12:14:59;;;;;;;2.67;1.02;;;20.60;97.60;;;;;;5081182;28;20762;-49
2023/09/25 12:17:27;;;;;;;1.55;1.33;;;20.50;97.70;;;;;;5080325;28;20293;-51
2023/09/25 12:19:54;;;;;;;1.08;0.98;;;20.60;98.20;;;;;;5079791;28;20271;-51
2023/09/25 12:22:21;;;;;;;2.03;1.05;;;20.60;98.10;;;;;;5059586;28;20186;-53
2023/09/25 12:24:49;;;;;;;1.52;1.30;;;20.70;98.20;;;;;;5067142;28;20212;-54
2023/09/25 12:27:16;;;;;;;3.22;0.95;;;20.70;97.80;;;;;;5082402;28;20221;-52
2023/09/25 12:29:44;;;;;;;1.10;1.00;;;20.80;98.00;;;;;;5069104;28;20209;-50
2023/09/25 12:32:11;;;;;;;1.23;1.20;;;20.90;97.90;;;;;;5082995;28;20217;-54
2023/09/25 12:34:39;;;;;;;2.35;1.10;;;21.00;97.70;;;;;;5081609;28;20198;-51
2023/09/25 12:37:06;;;;;;;3.83;0.90;;;20.90;97.50;;;;;;5083137;28;20303;-48
2023/09/25 12:39:34;;;;;;;0.90;0.90;;;20.90;97.00;;;;;;5038583;28;20202;-48
2023/09/25 12:42:02;;;;;;;1.48;1.08;;;20.90;96.70;;;;;;5085148;28;20189;-49
2023/09/25 12:44:29;;;;;;;3.50;1.20;;;20.80;96.70;;;;;;5079111;28;20194;-51
2023/09/25 12:46:55;;;;;;;1.52;1.20;;;20.70;96.80;;;;;;5074363;28;20229;-49
2023/09/25 12:49:22;;;;;;;1.90;1.13;;;20.70;97.20;;;;;;5081524;28;20661;-53
2023/09/25 12:51:50;;;;;;;3.42;1.20;;;20.60;97.20;;;;;;5084367;28;20734;-53
2023/09/25 12:54:17;;;;;;;1.33;1.20;;;20.60;97.10;;;;;;5065481;28;20206;-51